sensor_id;sensor_type;location;lat;lon;timestamp;temperature;humidity
9762;DHT22;4920;49.594;11.022;2023-08-30T00:01:38;12.40;99.90
9762;DHT22;4920;49.594;11.022;2023-08-30T00:04:07;12.30;99.90
9762;DHT22;4920;49.594;11.022;2023-08-30T00:06:35;12.20;99.90
9762;DHT22;4920;49.594;11.022;2023-08-30T00:09:04;12.20;99.90
9762;DHT22;4920;49.594;11.022;2023-08-30T00:11:36;12.10;99.90
9762;DHT22;4920;49.594;11.022;2023-08-30T00:14:05;12.10;99.90
9762;DHT22;4920;49.594;11.022;2023-08-30T00:16:35;12.00;99.90
9762;DHT22;4920;49.594;11.022;2023-08-30T00:19:06;12.00;99.90
9762;DHT22;4920;49.594;11.022;2023-08-30T00:21:35;12.00;99.90
9762;DHT22;4920;49.594;11.022;2023-08-30T00:24:04;12.10;99.90
9762;DHT22;4920;49.594;11.022;2023-08-30T00:26:33;12.10;99.90
9762;DHT22;4920;49.594;11.022;2023-08-30T00:29:06;12.00;99.90
9762;DHT22;4920;49.594;11.022;2023-08-30T00:31:35;12.00;99.90
9762;DHT22;4920;49.594;11.022;2023-08-30T00:34:04;12.00;99.90
9762;DHT22;4920;49.594;11.022;2023-08-30T00:36:32;11.90;99.90
9762;DHT22;4920;49.594;11.022;2023-08-30T00:39:02;11.80;99.90
9762;DHT22;4920;49.594;11.022;2023-08-30T00:41:31;11.80;99.90
9762;DHT22;4920;49.594;11.022;2023-08-30T00:44:00;11.70;99.90
9762;DHT22;4920;49.594;11.022;2023-08-30T00:46:31;11.70;99.90
9762;DHT22;4920;49.594;11.022;2023-08-30T00:49:01;11.70;99.90
9762;DHT22;4920;49.594;11.022;2023-08-30T00:51:31;11.70;99.90
9762;DHT22;4920;49.594;11.022;2023-08-30T00:54:01;11.60;99.90
9762;DHT22;4920;49.594;11.022;2023-08-30T00:56:32;11.60;99.90
9762;DHT22;4920;49.594;11.022;2023-08-30T00:59:01;11.50;99.90
9762;DHT22;4920;49.594;11.022;2023-08-30T01:01:33;11.50;99.90
9762;DHT22;4920;49.594;11.022;2023-08-30T01:04:02;11.50;99.90
9762;DHT22;4920;49.594;11.022;2023-08-30T01:06:31;11.50;99.90
9762;DHT22;4920;49.594;11.022;2023-08-30T01:09:02;11.40;99.90
9762;DHT22;4920;49.594;11.022;2023-08-30T01:11:40;11.40;99.90
9762;DHT22;4920;49.594;11.022;2023-08-30T01:14:14;11.40;99.90
9762;DHT22;4920;49.594;11.022;2023-08-30T01:16:46;11.50;99.90
9762;DHT22;4920;49.594;11.022;2023-08-30T01:19:29;11.50;99.90
9762;DHT22;4920;49.594;11.022;2023-08-30T01:22:10;11.50;99.90
9762;DHT22;4920;49.594;11.022;2023-08-30T01:24:45;11.50;99.90
9762;DHT22;4920;49.594;11.022;2023-08-30T01:27:19;11.40;99.90
9762;DHT22;4920;49.594;11.022;2023-08-30T01:29:49;11.40;99.90
9762;DHT22;4920;49.594;11.022;2023-08-30T01:32:18;11.40;99.90
9762;DHT22;4920;49.594;11.022;2023-08-30T01:34:50;11.40;99.90
9762;DHT22;4920;49.594;11.022;2023-08-30T01:37:20;11.40;99.90
9762;DHT22;4920;49.594;11.022;2023-08-30T01:39:49;11.30;99.90
9762;DHT22;4920;49.594;11.022;2023-08-30T01:42:20;11.40;99.90
9762;DHT22;4920;49.594;11.022;2023-08-30T01:44:51;11.40;99.90
9762;DHT22;4920;49.594;11.022;2023-08-30T01:47:23;11.40;99.90
9762;DHT22;4920;49.594;11.022;2023-08-30T01:49:53;11.30;99.90
9762;DHT22;4920;49.594;11.022;2023-08-30T01:52:24;11.30;99.90
9762;DHT22;4920;49.594;11.022;2023-08-30T01:54:53;11.30;99.90
9762;DHT22;4920;49.594;11.022;2023-08-30T01:57:23;11.30;99.90
9762;DHT22;4920;49.594;11.022;2023-08-30T01:59:52;11.30;99.90
9762;DHT22;4920;49.594;11.022;2023-08-30T02:02:21;11.40;99.90
9762;DHT22;4920;49.594;11.022;2023-08-30T02:04:50;11.30;99.90
9762;DHT22;4920;49.594;11.022;2023-08-30T02:07:22;11.30;99.90
9762;DHT22;4920;49.594;11.022;2023-08-30T02:09:58;11.40;99.90
9762;DHT22;4920;49.594;11.022;2023-08-30T02:12:35;11.40;99.90
9762;DHT22;4920;49.594;11.022;2023-08-30T02:15:07;11.40;99.90
9762;DHT22;4920;49.594;11.022;2023-08-30T02:17:57;11.40;99.90
9762;DHT22;4920;49.594;11.022;2023-08-30T02:20:27;11.50;99.90
9762;DHT22;4920;49.594;11.022;2023-08-30T02:22:58;11.50;99.90
9762;DHT22;4920;49.594;11.022;2023-08-30T02:25:40;11.50;99.90
9762;DHT22;4920;49.594;11.022;2023-08-30T02:28:10;11.50;99.90
9762;DHT22;4920;49.594;11.022;2023-08-30T02:30:40;11.50;99.90
9762;DHT22;4920;49.594;11.022;2023-08-30T02:33:10;11.50;99.90
9762;DHT22;4920;49.594;11.022;2023-08-30T02:35:39;11.50;99.90
9762;DHT22;4920;49.594;11.022;2023-08-30T02:38:08;11.50;99.90
9762;DHT22;4920;49.594;11.022;2023-08-30T02:40:37;11.50;99.90
9762;DHT22;4920;49.594;11.022;2023-08-30T02:43:07;11.50;99.90
9762;DHT22;4920;49.594;11.022;2023-08-30T02:45:37;11.50;99.90
9762;DHT22;4920;49.594;11.022;2023-08-30T02:48:06;11.50;99.90
9762;DHT22;4920;49.594;11.022;2023-08-30T02:50:36;11.50;99.90
9762;DHT22;4920;49.594;11.022;2023-08-30T02:53:05;11.50;99.90
9762;DHT22;4920;49.594;11.022;2023-08-30T02:55:35;11.50;99.90
9762;DHT22;4920;49.594;11.022;2023-08-30T02:58:04;11.40;99.90
9762;DHT22;4920;49.594;11.022;2023-08-30T03:00:34;11.40;99.90
9762;DHT22;4920;49.594;11.022;2023-08-30T03:03:05;11.40;99.90
9762;DHT22;4920;49.594;11.022;2023-08-30T03:05:34;11.30;99.90
9762;DHT22;4920;49.594;11.022;2023-08-30T03:08:04;11.30;99.90
9762;DHT22;4920;49.594;11.022;2023-08-30T03:10:33;11.30;99.90
9762;DHT22;4920;49.594;11.022;2023-08-30T03:13:03;11.30;99.90
9762;DHT22;4920;49.594;11.022;2023-08-30T03:15:32;11.30;99.90
9762;DHT22;4920;49.594;11.022;2023-08-30T03:18:02;11.30;99.90
9762;DHT22;4920;49.594;11.022;2023-08-30T03:20:33;11.30;99.90
9762;DHT22;4920;49.594;11.022;2023-08-30T03:23:02;11.30;99.90
9762;DHT22;4920;49.594;11.022;2023-08-30T03:25:33;11.30;99.90
9762;DHT22;4920;49.594;11.022;2023-08-30T03:28:02;11.40;99.90
9762;DHT22;4920;49.594;11.022;2023-08-30T03:30:31;11.40;99.90
9762;DHT22;4920;49.594;11.022;2023-08-30T03:32:59;11.40;99.90
9762;DHT22;4920;49.594;11.022;2023-08-30T03:35:29;11.40;99.90
9762;DHT22;4920;49.594;11.022;2023-08-30T03:38:03;11.40;99.90
9762;DHT22;4920;49.594;11.022;2023-08-30T03:40:33;11.30;99.90
9762;DHT22;4920;49.594;11.022;2023-08-30T03:43:02;11.30;99.90
9762;DHT22;4920;49.594;11.022;2023-08-30T03:45:34;11.20;99.90
9762;DHT22;4920;49.594;11.022;2023-08-30T03:48:04;11.20;99.90
9762;DHT22;4920;49.594;11.022;2023-08-30T03:50:34;11.20;99.90
9762;DHT22;4920;49.594;11.022;2023-08-30T03:53:04;11.20;99.90
9762;DHT22;4920;49.594;11.022;2023-08-30T03:55:33;11.20;99.90
9762;DHT22;4920;49.594;11.022;2023-08-30T03:58:03;11.20;99.90
9762;DHT22;4920;49.594;11.022;2023-08-30T04:00:32;11.10;99.90
9762;DHT22;4920;49.594;11.022;2023-08-30T04:03:02;11.10;99.90
9762;DHT22;4920;49.594;11.022;2023-08-30T04:05:32;11.10;99.90
9762;DHT22;4920;49.594;11.022;2023-08-30T04:08:04;11.10;99.90
9762;DHT22;4920;49.594;11.022;2023-08-30T04:10:34;11.10;99.90
9762;DHT22;4920;49.594;11.022;2023-08-30T04:13:04;11.10;99.90
9762;DHT22;4920;49.594;11.022;2023-08-30T04:15:34;11.10;99.90
9762;DHT22;4920;49.594;11.022;2023-08-30T04:18:05;11.10;99.90
9762;DHT22;4920;49.594;11.022;2023-08-30T04:20:35;11.10;99.90
9762;DHT22;4920;49.594;11.022;2023-08-30T04:23:05;11.10;99.90
9762;DHT22;4920;49.594;11.022;2023-08-30T04:25:34;11.10;99.90
9762;DHT22;4920;49.594;11.022;2023-08-30T04:28:04;11.10;99.90
9762;DHT22;4920;49.594;11.022;2023-08-30T04:30:36;11.10;99.90
9762;DHT22;4920;49.594;11.022;2023-08-30T04:33:05;11.20;99.90
9762;DHT22;4920;49.594;11.022;2023-08-30T04:35:34;11.20;99.90
9762;DHT22;4920;49.594;11.022;2023-08-30T04:38:05;11.30;99.90
9762;DHT22;4920;49.594;11.022;2023-08-30T04:40:34;11.40;99.90
9762;DHT22;4920;49.594;11.022;2023-08-30T04:43:05;11.50;99.90
9762;DHT22;4920;49.594;11.022;2023-08-30T04:45:34;11.60;99.90
9762;DHT22;4920;49.594;11.022;2023-08-30T04:48:06;11.60;99.90
9762;DHT22;4920;49.594;11.022;2023-08-30T04:50:36;11.70;99.90
9762;DHT22;4920;49.594;11.022;2023-08-30T04:53:06;11.70;99.90
9762;DHT22;4920;49.594;11.022;2023-08-30T04:55:36;11.80;99.90
9762;DHT22;4920;49.594;11.022;2023-08-30T04:58:04;11.80;99.90
9762;DHT22;4920;49.594;11.022;2023-08-30T05:00:35;11.90;99.90
9762;DHT22;4920;49.594;11.022;2023-08-30T05:03:04;12.00;99.90
9762;DHT22;4920;49.594;11.022;2023-08-30T05:05:34;12.10;99.90
9762;DHT22;4920;49.594;11.022;2023-08-30T05:08:03;12.20;99.90
9762;DHT22;4920;49.594;11.022;2023-08-30T05:10:34;12.30;99.90
9762;DHT22;4920;49.594;11.022;2023-08-30T05:13:03;12.40;99.90
9762;DHT22;4920;49.594;11.022;2023-08-30T05:15:32;12.60;99.90
9762;DHT22;4920;49.594;11.022;2023-08-30T05:18:01;12.70;99.90
9762;DHT22;4920;49.594;11.022;2023-08-30T05:20:31;12.80;99.90
9762;DHT22;4920;49.594;11.022;2023-08-30T05:22:59;12.90;99.90
9762;DHT22;4920;49.594;11.022;2023-08-30T05:25:28;13.00;99.90
9762;DHT22;4920;49.594;11.022;2023-08-30T05:27:59;13.10;99.90
9762;DHT22;4920;49.594;11.022;2023-08-30T05:30:27;13.20;99.90
9762;DHT22;4920;49.594;11.022;2023-08-30T05:32:58;13.30;99.90
9762;DHT22;4920;49.594;11.022;2023-08-30T05:35:46;13.40;99.90
9762;DHT22;4920;49.594;11.022;2023-08-30T05:38:35;13.50;99.90
9762;DHT22;4920;49.594;11.022;2023-08-30T05:41:13;13.60;99.90
9762;DHT22;4920;49.594;11.022;2023-08-30T05:43:44;13.70;99.90
9762;DHT22;4920;49.594;11.022;2023-08-30T05:46:14;13.90;99.90
9762;DHT22;4920;49.594;11.022;2023-08-30T05:48:43;14.00;99.90
9762;DHT22;4920;49.594;11.022;2023-08-30T05:51:11;14.20;99.90
9762;DHT22;4920;49.594;11.022;2023-08-30T05:53:41;14.30;99.90
9762;DHT22;4920;49.594;11.022;2023-08-30T05:56:10;14.60;99.90
9762;DHT22;4920;49.594;11.022;2023-08-30T05:58:39;14.90;99.90
9762;DHT22;4920;49.594;11.022;2023-08-30T06:01:09;15.20;99.90
9762;DHT22;4920;49.594;11.022;2023-08-30T06:03:38;15.50;99.90
9762;DHT22;4920;49.594;11.022;2023-08-30T06:06:07;15.80;99.90
9762;DHT22;4920;49.594;11.022;2023-08-30T06:08:36;16.10;99.90
9762;DHT22;4920;49.594;11.022;2023-08-30T06:11:05;16.30;99.90
9762;DHT22;4920;49.594;11.022;2023-08-30T06:13:34;16.50;99.90
9762;DHT22;4920;49.594;11.022;2023-08-30T06:16:02;16.60;99.90
9762;DHT22;4920;49.594;11.022;2023-08-30T06:18:33;16.80;99.90
9762;DHT22;4920;49.594;11.022;2023-08-30T06:21:02;16.80;99.90
9762;DHT22;4920;49.594;11.022;2023-08-30T06:23:33;16.80;99.90
9762;DHT22;4920;49.594;11.022;2023-08-30T06:26:02;16.90;99.90
9762;DHT22;4920;49.594;11.022;2023-08-30T06:28:31;17.00;99.90
9762;DHT22;4920;49.594;11.022;2023-08-30T06:31:00;17.00;99.90
9762;DHT22;4920;49.594;11.022;2023-08-30T06:33:29;17.00;99.90
9762;DHT22;4920;49.594;11.022;2023-08-30T06:36:00;16.90;99.90
9762;DHT22;4920;49.594;11.022;2023-08-30T06:38:28;17.00;99.90
9762;DHT22;4920;49.594;11.022;2023-08-30T06:40:58;17.00;99.90
9762;DHT22;4920;49.594;11.022;2023-08-30T06:43:26;17.10;99.90
9762;DHT22;4920;49.594;11.022;2023-08-30T06:45:57;17.10;99.90
9762;DHT22;4920;49.594;11.022;2023-08-30T06:48:27;17.10;99.90
9762;DHT22;4920;49.594;11.022;2023-08-30T06:50:57;17.20;99.90
9762;DHT22;4920;49.594;11.022;2023-08-30T06:53:28;17.20;99.90
9762;DHT22;4920;49.594;11.022;2023-08-30T06:55:57;17.20;99.90
9762;DHT22;4920;49.594;11.022;2023-08-30T06:58:26;17.30;99.90
9762;DHT22;4920;49.594;11.022;2023-08-30T07:00:57;17.30;99.90
9762;DHT22;4920;49.594;11.022;2023-08-30T07:03:26;17.30;99.90
9762;DHT22;4920;49.594;11.022;2023-08-30T07:05:55;17.40;99.90
9762;DHT22;4920;49.594;11.022;2023-08-30T07:08:23;17.30;99.90
9762;DHT22;4920;49.594;11.022;2023-08-30T07:10:54;17.20;99.90
9762;DHT22;4920;49.594;11.022;2023-08-30T07:13:23;17.10;99.90
9762;DHT22;4920;49.594;11.022;2023-08-30T07:15:52;16.90;99.90
9762;DHT22;4920;49.594;11.022;2023-08-30T07:18:23;16.80;99.90
9762;DHT22;4920;49.594;11.022;2023-08-30T07:20:52;16.70;99.90
9762;DHT22;4920;49.594;11.022;2023-08-30T07:23:21;16.70;99.90
9762;DHT22;4920;49.594;11.022;2023-08-30T07:25:51;16.70;99.90
9762;DHT22;4920;49.594;11.022;2023-08-30T07:28:22;16.80;99.90
9762;DHT22;4920;49.594;11.022;2023-08-30T07:30:51;17.00;99.90
9762;DHT22;4920;49.594;11.022;2023-08-30T07:33:20;17.10;99.90
9762;DHT22;4920;49.594;11.022;2023-08-30T07:35:49;17.30;99.90
9762;DHT22;4920;49.594;11.022;2023-08-30T07:38:18;17.40;99.90
9762;DHT22;4920;49.594;11.022;2023-08-30T07:40:47;17.50;99.90
9762;DHT22;4920;49.594;11.022;2023-08-30T07:43:15;17.50;99.90
9762;DHT22;4920;49.594;11.022;2023-08-30T07:45:47;17.60;99.90
9762;DHT22;4920;49.594;11.022;2023-08-30T07:48:16;17.50;99.90
9762;DHT22;4920;49.594;11.022;2023-08-30T07:50:44;17.60;99.90
9762;DHT22;4920;49.594;11.022;2023-08-30T07:53:13;17.50;99.90
9762;DHT22;4920;49.594;11.022;2023-08-30T07:55:42;17.70;99.90
9762;DHT22;4920;49.594;11.022;2023-08-30T07:58:10;17.90;99.90
9762;DHT22;4920;49.594;11.022;2023-08-30T08:00:39;18.20;99.90
9762;DHT22;4920;49.594;11.022;2023-08-30T08:03:10;18.60;99.90
9762;DHT22;4920;49.594;11.022;2023-08-30T08:05:41;19.00;99.90
9762;DHT22;4920;49.594;11.022;2023-08-30T08:08:09;19.40;99.90
9762;DHT22;4920;49.594;11.022;2023-08-30T08:10:39;19.70;99.90
9762;DHT22;4920;49.594;11.022;2023-08-30T08:13:07;19.90;99.90
9762;DHT22;4920;49.594;11.022;2023-08-30T08:15:37;20.10;99.90
9762;DHT22;4920;49.594;11.022;2023-08-30T08:18:06;20.30;99.90
9762;DHT22;4920;49.594;11.022;2023-08-30T08:20:36;20.50;99.90
9762;DHT22;4920;49.594;11.022;2023-08-30T08:23:06;20.60;99.90
9762;DHT22;4920;49.594;11.022;2023-08-30T08:25:35;20.80;99.90
9762;DHT22;4920;49.594;11.022;2023-08-30T08:28:05;20.90;99.90
9762;DHT22;4920;49.594;11.022;2023-08-30T08:30:35;21.10;99.90
9762;DHT22;4920;49.594;11.022;2023-08-30T08:33:04;21.10;99.90
9762;DHT22;4920;49.594;11.022;2023-08-30T08:35:35;21.20;99.90
9762;DHT22;4920;49.594;11.022;2023-08-30T08:38:04;21.10;99.90
9762;DHT22;4920;49.594;11.022;2023-08-30T08:40:37;21.00;99.90
9762;DHT22;4920;49.594;11.022;2023-08-30T08:43:10;21.10;99.90
9762;DHT22;4920;49.594;11.022;2023-08-30T08:45:40;21.10;99.90
9762;DHT22;4920;49.594;11.022;2023-08-30T08:48:09;21.20;99.90
9762;DHT22;4920;49.594;11.022;2023-08-30T08:50:41;21.30;99.90
9762;DHT22;4920;49.594;11.022;2023-08-30T08:53:13;21.30;99.90
9762;DHT22;4920;49.594;11.022;2023-08-30T08:55:44;21.30;99.90
9762;DHT22;4920;49.594;11.022;2023-08-30T08:58:15;21.50;99.90
9762;DHT22;4920;49.594;11.022;2023-08-30T09:00:44;21.70;99.90
9762;DHT22;4920;49.594;11.022;2023-08-30T09:03:13;21.90;99.90
9762;DHT22;4920;49.594;11.022;2023-08-30T09:05:45;22.20;99.90
9762;DHT22;4920;49.594;11.022;2023-08-30T09:08:15;22.50;99.90
9762;DHT22;4920;49.594;11.022;2023-08-30T09:10:44;22.90;99.90
9762;DHT22;4920;49.594;11.022;2023-08-30T09:13:14;23.10;99.90
9762;DHT22;4920;49.594;11.022;2023-08-30T09:15:43;23.10;99.90
9762;DHT22;4920;49.594;11.022;2023-08-30T09:18:15;22.80;99.90
9762;DHT22;4920;49.594;11.022;2023-08-30T09:20:46;22.40;99.90
9762;DHT22;4920;49.594;11.022;2023-08-30T09:23:18;22.20;99.90
9762;DHT22;4920;49.594;11.022;2023-08-30T09:25:54;22.10;99.90
9762;DHT22;4920;49.594;11.022;2023-08-30T09:28:23;22.00;99.90
9762;DHT22;4920;49.594;11.022;2023-08-30T09:30:52;22.00;99.90
9762;DHT22;4920;49.594;11.022;2023-08-30T09:33:29;22.00;99.90
9762;DHT22;4920;49.594;11.022;2023-08-30T09:36:01;22.00;99.90
9762;DHT22;4920;49.594;11.022;2023-08-30T09:38:29;22.10;99.90
9762;DHT22;4920;49.594;11.022;2023-08-30T09:41:05;22.20;99.90
9762;DHT22;4920;49.594;11.022;2023-08-30T09:43:33;22.20;99.90
9762;DHT22;4920;49.594;11.022;2023-08-30T09:46:03;22.30;99.90
9762;DHT22;4920;49.594;11.022;2023-08-30T09:48:34;22.40;99.90
9762;DHT22;4920;49.594;11.022;2023-08-30T09:51:04;22.50;99.90
9762;DHT22;4920;49.594;11.022;2023-08-30T09:53:42;22.70;99.90
9762;DHT22;4920;49.594;11.022;2023-08-30T09:56:31;23.00;99.90
9762;DHT22;4920;49.594;11.022;2023-08-30T09:59:02;23.20;99.90
9762;DHT22;4920;49.594;11.022;2023-08-30T10:01:32;23.40;99.90
9762;DHT22;4920;49.594;11.022;2023-08-30T10:04:02;23.40;99.90
9762;DHT22;4920;49.594;11.022;2023-08-30T10:06:34;23.50;99.90
9762;DHT22;4920;49.594;11.022;2023-08-30T10:09:04;23.50;99.90
9762;DHT22;4920;49.594;11.022;2023-08-30T10:11:33;23.50;99.90
9762;DHT22;4920;49.594;11.022;2023-08-30T10:14:03;23.40;99.90
9762;DHT22;4920;49.594;11.022;2023-08-30T10:16:40;23.30;99.90
9762;DHT22;4920;49.594;11.022;2023-08-30T10:19:14;23.20;99.90
9762;DHT22;4920;49.594;11.022;2023-08-30T10:21:47;23.20;99.90
9762;DHT22;4920;49.594;11.022;2023-08-30T10:24:19;23.10;99.90
9762;DHT22;4920;49.594;11.022;2023-08-30T10:27:04;23.10;99.90
9762;DHT22;4920;49.594;11.022;2023-08-30T10:29:36;23.20;99.90
9762;DHT22;4920;49.594;11.022;2023-08-30T10:32:06;23.30;99.90
9762;DHT22;4920;49.594;11.022;2023-08-30T10:34:36;23.40;99.90
9762;DHT22;4920;49.594;11.022;2023-08-30T10:37:09;23.60;99.90
9762;DHT22;4920;49.594;11.022;2023-08-30T10:39:39;23.80;99.90
9762;DHT22;4920;49.594;11.022;2023-08-30T10:42:09;24.20;99.90
9762;DHT22;4920;49.594;11.022;2023-08-30T10:44:47;24.40;99.90
9762;DHT22;4920;49.594;11.022;2023-08-30T10:47:37;24.70;99.90
9762;DHT22;4920;49.594;11.022;2023-08-30T10:50:08;24.90;99.90
9762;DHT22;4920;49.594;11.022;2023-08-30T10:52:39;24.80;99.90
9762;DHT22;4920;49.594;11.022;2023-08-30T10:55:09;24.70;99.90
9762;DHT22;4920;49.594;11.022;2023-08-30T10:57:42;24.70;99.90
9762;DHT22;4920;49.594;11.022;2023-08-30T11:00:18;25.00;99.90
9762;DHT22;4920;49.594;11.022;2023-08-30T11:02:49;25.20;99.90
9762;DHT22;4920;49.594;11.022;2023-08-30T11:05:20;25.30;99.90
9762;DHT22;4920;49.594;11.022;2023-08-30T11:07:50;25.40;99.90
9762;DHT22;4920;49.594;11.022;2023-08-30T11:10:20;25.40;99.90
9762;DHT22;4920;49.594;11.022;2023-08-30T11:12:49;25.40;99.90
9762;DHT22;4920;49.594;11.022;2023-08-30T11:15:19;25.50;99.90
9762;DHT22;4920;49.594;11.022;2023-08-30T11:17:48;25.50;99.90
9762;DHT22;4920;49.594;11.022;2023-08-30T11:20:17;25.50;99.50
9762;DHT22;4920;49.594;11.022;2023-08-30T11:22:50;25.50;99.30
9762;DHT22;4920;49.594;11.022;2023-08-30T11:25:20;25.40;99.90
9762;DHT22;4920;49.594;11.022;2023-08-30T11:27:49;25.20;99.90
9762;DHT22;4920;49.594;11.022;2023-08-30T11:30:18;25.20;99.90
9762;DHT22;4920;49.594;11.022;2023-08-30T11:32:48;25.20;99.90
9762;DHT22;4920;49.594;11.022;2023-08-30T11:35:18;25.00;99.20
9762;DHT22;4920;49.594;11.022;2023-08-30T11:37:47;24.70;98.90
9762;DHT22;4920;49.594;11.022;2023-08-30T11:40:17;24.20;99.90
9762;DHT22;4920;49.594;11.022;2023-08-30T11:42:48;23.70;99.90
9762;DHT22;4920;49.594;11.022;2023-08-30T11:45:17;23.30;99.90
9762;DHT22;4920;49.594;11.022;2023-08-30T11:47:46;22.90;99.90
9762;DHT22;4920;49.594;11.022;2023-08-30T11:50:15;22.70;99.90
9762;DHT22;4920;49.594;11.022;2023-08-30T11:52:46;22.50;99.90
9762;DHT22;4920;49.594;11.022;2023-08-30T11:55:19;22.40;99.90
9762;DHT22;4920;49.594;11.022;2023-08-30T11:57:49;22.50;99.90
9762;DHT22;4920;49.594;11.022;2023-08-30T12:00:19;22.60;99.90
9762;DHT22;4920;49.594;11.022;2023-08-30T12:02:48;22.70;99.90
9762;DHT22;4920;49.594;11.022;2023-08-30T12:05:17;22.80;99.90
9762;DHT22;4920;49.594;11.022;2023-08-30T12:07:46;22.90;99.90
9762;DHT22;4920;49.594;11.022;2023-08-30T12:10:19;23.20;99.90
9762;DHT22;4920;49.594;11.022;2023-08-30T12:12:48;23.50;99.90
9762;DHT22;4920;49.594;11.022;2023-08-30T12:15:17;23.70;99.90
9762;DHT22;4920;49.594;11.022;2023-08-30T12:17:46;23.90;99.90
9762;DHT22;4920;49.594;11.022;2023-08-30T12:20:16;24.10;99.90
9762;DHT22;4920;49.594;11.022;2023-08-30T12:22:48;24.20;99.90
9762;DHT22;4920;49.594;11.022;2023-08-30T12:25:21;24.40;99.90
9762;DHT22;4920;49.594;11.022;2023-08-30T12:27:51;24.40;99.90
9762;DHT22;4920;49.594;11.022;2023-08-30T12:30:20;24.40;99.60
9762;DHT22;4920;49.594;11.022;2023-08-30T12:32:48;24.40;99.40
9762;DHT22;4920;49.594;11.022;2023-08-30T12:35:17;24.50;99.60
9762;DHT22;4920;49.594;11.022;2023-08-30T12:37:46;24.60;98.90
9762;DHT22;4920;49.594;11.022;2023-08-30T12:40:15;24.70;99.50
9762;DHT22;4920;49.594;11.022;2023-08-30T12:42:45;24.70;99.30
9762;DHT22;4920;49.594;11.022;2023-08-30T12:45:14;24.70;99.30
9762;DHT22;4920;49.594;11.022;2023-08-30T12:47:43;24.70;99.70
9762;DHT22;4920;49.594;11.022;2023-08-30T12:50:12;24.50;99.90
9762;DHT22;4920;49.594;11.022;2023-08-30T12:52:41;24.40;99.90
9762;DHT22;4920;49.594;11.022;2023-08-30T12:55:09;24.00;99.90
9762;DHT22;4920;49.594;11.022;2023-08-30T12:57:39;23.10;99.90
9762;DHT22;4920;49.594;11.022;2023-08-30T13:00:11;22.00;99.90
9762;DHT22;4920;49.594;11.022;2023-08-30T13:02:40;21.20;99.90
9762;DHT22;4920;49.594;11.022;2023-08-30T13:05:09;20.50;99.90
9762;DHT22;4920;49.594;11.022;2023-08-30T13:07:38;20.20;99.90
9762;DHT22;4920;49.594;11.022;2023-08-30T13:10:07;20.20;99.90
9762;DHT22;4920;49.594;11.022;2023-08-30T13:12:36;20.30;99.90
9762;DHT22;4920;49.594;11.022;2023-08-30T13:15:10;20.50;99.90
9762;DHT22;4920;49.594;11.022;2023-08-30T13:17:39;20.80;99.90
9762;DHT22;4920;49.594;11.022;2023-08-30T13:20:09;21.10;99.90
9762;DHT22;4920;49.594;11.022;2023-08-30T13:22:38;21.70;99.90
9762;DHT22;4920;49.594;11.022;2023-08-30T13:25:08;22.20;99.90
9762;DHT22;4920;49.594;11.022;2023-08-30T13:27:37;22.60;99.90
9762;DHT22;4920;49.594;11.022;2023-08-30T13:30:06;23.00;99.90
9762;DHT22;4920;49.594;11.022;2023-08-30T13:32:37;23.50;99.90
9762;DHT22;4920;49.594;11.022;2023-08-30T13:35:06;23.80;99.90
9762;DHT22;4920;49.594;11.022;2023-08-30T13:37:36;24.00;99.90
9762;DHT22;4920;49.594;11.022;2023-08-30T13:40:06;24.00;99.90
9762;DHT22;4920;49.594;11.022;2023-08-30T13:42:34;24.20;99.90
9762;DHT22;4920;49.594;11.022;2023-08-30T13:45:04;24.40;99.90
9762;DHT22;4920;49.594;11.022;2023-08-30T13:47:34;24.50;99.90
9762;DHT22;4920;49.594;11.022;2023-08-30T13:50:05;24.50;99.90
9762;DHT22;4920;49.594;11.022;2023-08-30T13:52:34;24.50;99.90
9762;DHT22;4920;49.594;11.022;2023-08-30T13:55:03;24.50;99.90
9762;DHT22;4920;49.594;11.022;2023-08-30T13:57:32;24.50;99.90
9762;DHT22;4920;49.594;11.022;2023-08-30T14:00:01;24.50;99.90
9762;DHT22;4920;49.594;11.022;2023-08-30T14:02:35;24.50;99.90
9762;DHT22;4920;49.594;11.022;2023-08-30T14:05:06;24.40;99.90
9762;DHT22;4920;49.594;11.022;2023-08-30T14:07:35;24.40;99.90
9762;DHT22;4920;49.594;11.022;2023-08-30T14:10:05;24.40;99.90
9762;DHT22;4920;49.594;11.022;2023-08-30T14:12:34;24.40;99.90
9762;DHT22;4920;49.594;11.022;2023-08-30T14:15:03;24.40;99.90
9762;DHT22;4920;49.594;11.022;2023-08-30T14:17:32;24.50;99.90
9762;DHT22;4920;49.594;11.022;2023-08-30T14:20:01;24.70;99.90
9762;DHT22;4920;49.594;11.022;2023-08-30T14:22:32;24.70;99.90
9762;DHT22;4920;49.594;11.022;2023-08-30T14:25:02;24.80;99.80
9762;DHT22;4920;49.594;11.022;2023-08-30T14:27:38;24.90;99.90
9762;DHT22;4920;49.594;11.022;2023-08-30T14:30:08;25.00;99.90
9762;DHT22;4920;49.594;11.022;2023-08-30T14:32:37;25.10;99.90
9762;DHT22;4920;49.594;11.022;2023-08-30T14:35:06;25.10;98.20
9762;DHT22;4920;49.594;11.022;2023-08-30T14:37:37;25.10;98.70
9762;DHT22;4920;49.594;11.022;2023-08-30T14:40:07;25.20;97.80
9762;DHT22;4920;49.594;11.022;2023-08-30T14:42:36;25.20;97.60
9762;DHT22;4920;49.594;11.022;2023-08-30T14:45:06;25.10;96.90
9762;DHT22;4920;49.594;11.022;2023-08-30T14:47:35;25.00;96.90
9762;DHT22;4920;49.594;11.022;2023-08-30T14:50:05;24.90;96.10
9762;DHT22;4920;49.594;11.022;2023-08-30T14:52:34;24.70;95.30
9762;DHT22;4920;49.594;11.022;2023-08-30T14:55:06;24.50;95.00
9762;DHT22;4920;49.594;11.022;2023-08-30T14:57:34;24.40;95.40
9762;DHT22;4920;49.594;11.022;2023-08-30T15:00:04;24.20;95.60
9762;DHT22;4920;49.594;11.022;2023-08-30T15:02:33;24.00;95.20
9762;DHT22;4920;49.594;11.022;2023-08-30T15:05:03;23.90;95.90
9762;DHT22;4920;49.594;11.022;2023-08-30T15:07:32;23.80;95.80
9762;DHT22;4920;49.594;11.022;2023-08-30T15:10:01;23.70;95.80
9762;DHT22;4920;49.594;11.022;2023-08-30T15:12:31;23.60;95.70
9762;DHT22;4920;49.594;11.022;2023-08-30T15:15:00;23.70;95.90
9762;DHT22;4920;49.594;11.022;2023-08-30T15:17:29;23.70;96.00
9762;DHT22;4920;49.594;11.022;2023-08-30T15:19:58;23.70;96.00
9762;DHT22;4920;49.594;11.022;2023-08-30T15:22:27;23.60;95.60
9762;DHT22;4920;49.594;11.022;2023-08-30T15:24:56;23.40;95.90
9762;DHT22;4920;49.594;11.022;2023-08-30T15:27:25;23.30;96.00
9762;DHT22;4920;49.594;11.022;2023-08-30T15:29:55;23.10;96.40
9762;DHT22;4920;49.594;11.022;2023-08-30T15:32:25;23.00;96.80
9762;DHT22;4920;49.594;11.022;2023-08-30T15:34:55;23.00;97.00
9762;DHT22;4920;49.594;11.022;2023-08-30T15:37:24;23.00;97.40
9762;DHT22;4920;49.594;11.022;2023-08-30T15:39:58;22.80;96.40
9762;DHT22;4920;49.594;11.022;2023-08-30T15:42:31;22.70;96.50
9762;DHT22;4920;49.594;11.022;2023-08-30T15:45:02;22.50;96.70
9762;DHT22;4920;49.594;11.022;2023-08-30T15:47:32;22.50;96.80
9762;DHT22;4920;49.594;11.022;2023-08-30T15:50:01;22.60;96.80
9762;DHT22;4920;49.594;11.022;2023-08-30T15:52:30;22.80;96.70
9762;DHT22;4920;49.594;11.022;2023-08-30T15:54:59;23.00;96.40
9762;DHT22;4920;49.594;11.022;2023-08-30T15:57:28;23.20;95.90
9762;DHT22;4920;49.594;11.022;2023-08-30T15:59:57;23.30;96.00
9762;DHT22;4920;49.594;11.022;2023-08-30T16:02:28;23.60;96.10
9762;DHT22;4920;49.594;11.022;2023-08-30T16:04:57;23.70;95.70